Time;durP1;ratioP1;P1;durP2;ratioP2;P2;SDS_P1;SDS_P2;PMS_P1;PMS_P2;Temp;Humidity;BMP_temperature;BMP_pressure;BME280_temperature;BME280_humidity;BME280_pressure;Samples;Min_cycle;Max_cycle;Signal;HPM_P1;HPM_P2
2021/10/22 00:01:10;;;;;;;9.93;2.53;;;7.40;99.90;;;;;;5095195;28;20414;-69
2021/10/22 00:03:36;;;;;;;7.85;2.10;;;7.40;99.90;;;;;;5094887;28;20092;-69
2021/10/22 00:06:01;;;;;;;9.32;2.13;;;7.40;99.90;;;;;;5094890;28;20040;-69
2021/10/22 00:08:27;;;;;;;9.57;1.58;;;7.40;99.90;;;;;;5094992;28;20032;-69
2021/10/22 00:10:53;;;;;;;10.38;2.92;;;7.40;99.90;;;;;;5094701;28;20089;-69
2021/10/22 00:13:19;;;;;;;14.43;1.88;;;7.40;99.90;;;;;;5093533;28;20112;-69
2021/10/22 00:15:45;;;;;;;11.27;1.60;;;7.40;99.90;;;;;;5094541;28;20523;-69
2021/10/22 00:18:11;;;;;;;7.07;1.33;;;7.40;99.90;;;;;;5094713;28;20048;-69
2021/10/22 00:20:37;;;;;;;8.98;1.90;;;7.30;99.90;;;;;;5092903;28;20044;-69
2021/10/22 00:23:02;;;;;;;4.90;1.50;;;7.30;99.90;;;;;;5093488;28;20048;-69
2021/10/22 00:25:28;;;;;;;7.75;1.70;;;7.30;99.90;;;;;;5094815;28;20128;-69
2021/10/22 00:27:54;;;;;;;9.48;1.98;;;7.30;99.90;;;;;;5094781;28;20032;-69
2021/10/22 00:30:19;;;;;;;10.23;1.75;;;7.30;99.90;;;;;;5092968;28;20427;-69
2021/10/22 00:32:45;;;;;;;13.90;2.28;;;7.30;99.90;;;;;;5093017;28;20456;-70
2021/10/22 00:35:11;;;;;;;11.50;2.00;;;7.30;99.90;;;;;;5093011;28;20097;-69
2021/10/22 00:37:37;;;;;;;12.20;1.77;;;7.30;99.90;;;;;;5094336;28;20072;-69
2021/10/22 00:40:04;;;;;;;9.98;1.90;;;7.40;99.90;;;;;;5093854;28;20044;-69
2021/10/22 00:42:32;;;;;;;9.85;1.80;;;7.40;99.90;;;;;;5093084;28;20044;-70
2021/10/22 00:44:58;;;;;;;9.45;1.85;;;7.40;99.90;;;;;;5094264;28;20032;-69
2021/10/22 00:47:24;;;;;;;10.07;2.20;;;7.40;99.90;;;;;;5094355;28;20043;-69
2021/10/22 00:49:50;;;;;;;9.13;1.60;;;7.40;99.90;;;;;;5093900;28;20040;-70
2021/10/22 00:52:20;;;;;;;8.02;1.52;;;7.40;99.90;;;;;;5092645;28;20044;-69
2021/10/22 00:54:46;;;;;;;8.00;1.60;;;7.30;99.90;;;;;;5094102;28;20047;-69
2021/10/22 00:57:13;;;;;;;10.40;2.10;;;7.30;99.90;;;;;;5093307;28;20040;-70
2021/10/22 00:59:39;;;;;;;11.60;2.08;;;7.30;99.90;;;;;;5092134;28;20093;-69
2021/10/22 01:02:05;;;;;;;11.38;2.45;;;7.30;99.90;;;;;;5093940;28;20090;-69
2021/10/22 01:04:31;;;;;;;13.77;2.38;;;7.20;99.90;;;;;;5092500;28;20044;-69
2021/10/22 01:06:57;;;;;;;14.38;2.40;;;7.30;99.90;;;;;;5093813;28;20047;-69
2021/10/22 01:09:23;;;;;;;11.70;1.90;;;7.30;99.90;;;;;;5093487;28;20075;-69
2021/10/22 01:11:49;;;;;;;10.48;2.40;;;7.40;99.90;;;;;;5093900;28;20036;-69
2021/10/22 01:14:17;;;;;;;17.85;2.35;;;7.50;99.90;;;;;;5092577;28;20444;-69
2021/10/22 01:16:43;;;;;;;10.55;2.20;;;7.50;99.90;;;;;;5093966;28;20032;-70
2021/10/22 01:19:16;;;;;;;12.10;2.30;;;7.60;99.90;;;;;;5092324;28;20412;-69
2021/10/22 01:21:45;;;;;;;13.95;2.70;;;7.60;99.90;;;;;;5092793;28;20098;-69
2021/10/22 01:24:11;;;;;;;14.52;2.45;;;7.60;99.90;;;;;;5093872;28;20039;-69
2021/10/22 01:26:37;;;;;;;10.65;2.00;;;7.60;99.90;;;;;;5092449;28;20376;-69
2021/10/22 01:29:03;;;;;;;14.10;3.10;;;7.50;99.90;;;;;;5093313;28;20032;-69
2021/10/22 01:31:28;;;;;;;11.60;2.28;;;7.60;99.90;;;;;;5092293;28;20499;-69
2021/10/22 01:33:57;;;;;;;17.15;2.70;;;7.50;99.90;;;;;;5093878;28;20190;-69
2021/10/22 01:36:24;;;;;;;14.40;2.67;;;7.50;99.90;;;;;;5093650;28;20059;-69
2021/10/22 01:38:50;;;;;;;13.68;2.38;;;7.60;99.90;;;;;;5092086;28;20044;-69
2021/10/22 01:41:16;;;;;;;9.75;2.08;;;7.50;99.90;;;;;;5092282;28;20036;-69
2021/10/22 01:43:43;;;;;;;9.32;1.90;;;7.50;99.90;;;;;;5094119;28;20028;-69
2021/10/22 01:46:10;;;;;;;10.02;1.48;;;7.60;99.90;;;;;;5093361;28;20032;-69
2021/10/22 01:48:36;;;;;;;10.80;2.28;;;7.60;99.90;;;;;;5091682;28;20032;-69
2021/10/22 01:51:02;;;;;;;12.95;2.60;;;7.60;99.90;;;;;;5092168;28;20035;-69
2021/10/22 01:53:28;;;;;;;15.82;2.20;;;7.60;99.90;;;;;;5093361;28;20040;-69
2021/10/22 01:55:53;;;;;;;9.23;1.90;;;7.60;99.90;;;;;;5075326;28;20040;-69
2021/10/22 01:58:19;;;;;;;14.43;2.70;;;7.60;99.90;;;;;;5092195;28;20032;-69
2021/10/22 02:00:44;;;;;;;5.20;1.55;;;7.60;99.90;;;;;;5091472;28;20500;-69
2021/10/22 02:03:10;;;;;;;8.93;2.35;;;7.60;99.90;;;;;;5093392;28;20140;-69
2021/10/22 02:05:36;;;;;;;8.20;1.70;;;7.60;99.90;;;;;;5093190;28;20040;-69
2021/10/22 02:08:02;;;;;;;10.30;1.77;;;7.50;99.90;;;;;;5094535;28;20036;-69
2021/10/22 02:10:28;;;;;;;17.88;2.47;;;7.60;99.90;;;;;;5096927;28;20048;-69
2021/10/22 02:12:53;;;;;;;11.20;2.60;;;7.60;99.90;;;;;;5097125;28;20100;-69
2021/10/22 02:15:19;;;;;;;14.80;3.28;;;7.60;99.90;;;;;;5097130;28;20036;-69
2021/10/22 02:17:45;;;;;;;17.48;3.03;;;7.80;99.90;;;;;;5096987;28;20501;-69
2021/10/22 02:20:11;;;;;;;13.63;2.72;;;7.70;99.90;;;;;;5096485;28;20044;-69
2021/10/22 02:22:37;;;;;;;11.25;2.47;;;7.70;99.90;;;;;;5096656;28;20048;-69
2021/10/22 02:25:05;;;;;;;11.00;2.17;;;7.70;99.90;;;;;;5096955;28;20028;-69
2021/10/22 02:27:30;;;;;;;10.52;2.10;;;7.70;99.90;;;;;;5096152;28;20036;-69
2021/10/22 02:29:56;;;;;;;9.27;2.08;;;7.70;99.90;;;;;;5095157;28;20507;-69
2021/10/22 02:32:21;;;;;;;10.25;1.88;;;7.60;99.90;;;;;;5096706;28;20032;-69
2021/10/22 02:34:47;;;;;;;10.88;1.90;;;7.60;99.90;;;;;;5096715;28;20602;-69
2021/10/22 02:37:13;;;;;;;8.50;2.10;;;7.60;99.90;;;;;;5095428;28;20385;-69
2021/10/22 02:39:41;;;;;;;12.05;2.53;;;7.70;99.90;;;;;;5096334;28;20048;-68
2021/10/22 02:42:07;;;;;;;12.38;2.17;;;7.70;99.90;;;;;;5096492;28;20036;-68
2021/10/22 02:44:33;;;;;;;16.35;2.83;;;7.80;99.90;;;;;;5095657;28;20594;-69
2021/10/22 02:46:59;;;;;;;11.68;2.65;;;7.90;99.90;;;;;;5095324;28;20044;-69
2021/10/22 02:49:26;;;;;;;14.65;2.40;;;7.80;99.90;;;;;;5096027;28;20100;-69
2021/10/22 02:51:54;;;;;;;15.18;2.35;;;7.80;99.90;;;;;;5096579;28;20036;-69
2021/10/22 02:54:21;;;;;;;10.85;2.72;;;7.80;99.90;;;;;;5096567;28;20036;-69
2021/10/22 02:56:47;;;;;;;10.98;1.67;;;7.80;99.90;;;;;;5095483;28;20510;-69
2021/10/22 02:59:13;;;;;;;14.98;2.70;;;7.80;99.90;;;;;;5095834;28;20079;-69
2021/10/22 03:01:38;;;;;;;12.05;2.15;;;7.80;99.90;;;;;;5095297;28;20040;-69
2021/10/22 03:04:04;;;;;;;14.20;2.25;;;7.80;99.90;;;;;;5096034;28;20036;-69
2021/10/22 03:06:29;;;;;;;13.07;2.28;;;7.70;99.90;;;;;;5096308;28;20089;-69
2021/10/22 03:08:56;;;;;;;11.30;2.00;;;7.80;99.90;;;;;;5095872;28;20042;-69
2021/10/22 03:11:21;;;;;;;14.10;2.47;;;7.70;99.90;;;;;;5094745;28;20079;-69
2021/10/22 03:13:47;;;;;;;10.07;2.33;;;7.80;99.90;;;;;;5095904;28;20069;-69
2021/10/22 03:16:13;;;;;;;14.93;2.47;;;7.70;99.90;;;;;;5095864;28;20480;-69
2021/10/22 03:18:39;;;;;;;9.95;2.28;;;7.80;99.90;;;;;;5095519;28;20110;-69
2021/10/22 03:21:05;;;;;;;10.82;2.20;;;7.80;99.90;;;;;;5095452;28;20528;-69
2021/10/22 03:23:30;;;;;;;11.10;3.55;;;7.80;99.90;;;;;;5095941;28;20123;-69
2021/10/22 03:25:56;;;;;;;11.20;2.97;;;8.00;99.90;;;;;;5095609;28;20046;-69
2021/10/22 03:28:22;;;;;;;11.80;2.60;;;8.00;99.90;;;;;;5095731;28;20047;-69
2021/10/22 03:30:47;;;;;;;15.55;2.58;;;8.00;99.90;;;;;;5095293;28;20067;-69
2021/10/22 03:33:13;;;;;;;16.85;3.00;;;8.10;99.90;;;;;;5095455;28;20039;-69
2021/10/22 03:35:39;;;;;;;20.85;3.03;;;8.00;99.90;;;;;;5093999;28;20468;-69
2021/10/22 03:38:05;;;;;;;15.90;2.40;;;8.00;99.90;;;;;;5095452;28;20040;-69
2021/10/22 03:40:31;;;;;;;16.75;3.40;;;8.00;99.90;;;;;;5095085;28;20115;-69
2021/10/22 03:42:58;;;;;;;9.77;2.17;;;8.00;99.90;;;;;;5095605;28;20028;-69
2021/10/22 03:45:25;;;;;;;13.40;2.75;;;8.00;99.90;;;;;;5095340;28;20055;-69
2021/10/22 03:47:52;;;;;;;14.82;3.47;;;7.90;99.90;;;;;;5095800;28;20047;-69
2021/10/22 03:50:19;;;;;;;12.90;2.38;;;8.00;99.90;;;;;;5095064;28;20101;-69
2021/10/22 03:52:45;;;;;;;17.58;2.50;;;8.00;99.90;;;;;;5095297;28;20043;-69
2021/10/22 03:55:11;;;;;;;18.50;2.72;;;8.00;99.90;;;;;;5093963;28;20122;-69
2021/10/22 03:57:37;;;;;;;8.43;2.22;;;8.00;99.90;;;;;;5094298;28;20154;-69
2021/10/22 04:00:05;;;;;;;16.67;3.53;;;8.00;99.90;;;;;;5094702;28;20123;-69
2021/10/22 04:02:34;;;;;;;13.13;2.58;;;8.00;99.90;;;;;;5093980;28;20129;-69
2021/10/22 04:05:03;;;;;;;16.15;2.33;;;8.00;99.90;;;;;;5095047;28;20040;-69
2021/10/22 04:07:29;;;;;;;16.05;2.92;;;8.00;99.90;;;;;;5094909;28;20132;-69
2021/10/22 04:09:54;;;;;;;16.30;3.22;;;8.00;99.90;;;;;;5093628;28;20047;-69
2021/10/22 04:12:20;;;;;;;14.48;2.28;;;8.00;99.90;;;;;;5093808;28;20399;-69
2021/10/22 04:14:46;;;;;;;10.98;2.45;;;8.10;99.90;;;;;;5094972;28;20042;-69
2021/10/22 04:17:11;;;;;;;10.52;2.65;;;8.10;99.90;;;;;;5094705;28;20090;-69
2021/10/22 04:19:37;;;;;;;16.67;2.80;;;8.20;99.90;;;;;;5093052;28;20097;-69
2021/10/22 04:22:03;;;;;;;13.10;2.83;;;8.20;99.90;;;;;;5094668;28;20036;-69
2021/10/22 04:24:28;;;;;;;10.07;2.30;;;8.30;99.90;;;;;;5093219;28;20075;-69
2021/10/22 04:26:54;;;;;;;12.63;3.40;;;8.30;99.90;;;;;;5093521;28;20036;-69
2021/10/22 04:29:19;;;;;;;15.77;2.55;;;8.30;99.90;;;;;;5093557;28;20047;-69
2021/10/22 04:31:45;;;;;;;9.88;2.58;;;8.30;99.90;;;;;;5094574;28;20365;-69
2021/10/22 04:34:11;;;;;;;10.88;2.72;;;8.40;99.90;;;;;;5093196;28;20077;-69
2021/10/22 04:36:38;;;;;;;15.75;2.58;;;8.30;99.90;;;;;;5094408;28;20107;-69
2021/10/22 04:41:49;;;;;;;11.98;2.50;;;8.30;99.90;;;;;;5092871;28;20048;-69
2021/10/22 04:44:18;;;;;;;13.27;2.28;;;8.40;99.90;;;;;;5093138;28;20047;-69
2021/10/22 04:46:43;;;;;;;10.65;2.22;;;8.40;99.90;;;;;;5094193;28;20039;-69
2021/10/22 04:49:09;;;;;;;12.43;2.33;;;8.40;99.90;;;;;;5093709;28;20403;-69
2021/10/22 04:51:35;;;;;;;11.10;2.60;;;8.40;99.90;;;;;;5093007;28;20056;-69
2021/10/22 04:54:01;;;;;;;12.55;2.42;;;8.40;99.90;;;;;;5094143;28;20510;-69
2021/10/22 04:56:27;;;;;;;7.10;1.83;;;8.40;99.90;;;;;;5093883;28;20114;-68
2021/10/22 04:58:52;;;;;;;14.45;2.50;;;8.40;99.90;;;;;;5093481;28;20051;-69
2021/10/22 05:01:18;;;;;;;22.58;3.42;;;8.50;99.90;;;;;;5092651;28;20040;-68
2021/10/22 05:03:44;;;;;;;9.10;2.28;;;8.50;99.90;;;;;;5093960;28;20039;-69
2021/10/22 05:06:10;;;;;;;11.90;2.20;;;8.50;99.90;;;;;;5092589;28;20059;-69
2021/10/22 05:08:37;;;;;;;14.32;2.88;;;8.50;99.90;;;;;;5093487;28;20048;-68
2021/10/22 05:11:04;;;;;;;9.52;2.10;;;8.50;99.90;;;;;;5094071;28;20590;-68
2021/10/22 05:13:30;;;;;;;11.20;3.20;;;8.50;99.90;;;;;;5093567;28;20048;-68
2021/10/22 05:15:55;;;;;;;10.18;2.97;;;8.50;99.90;;;;;;5093796;28;20040;-68
2021/10/22 05:18:21;;;;;;;11.07;2.38;;;8.50;99.90;;;;;;5093507;28;20039;-68
2021/10/22 05:20:47;;;;;;;12.20;3.08;;;8.50;99.90;;;;;;5093268;28;20040;-68
2021/10/22 05:23:12;;;;;;;10.60;2.50;;;8.60;99.90;;;;;;5093822;28;20115;-68
2021/10/22 05:25:38;;;;;;;15.95;2.35;;;8.60;99.90;;;;;;5093385;28;20503;-68
2021/10/22 05:28:04;;;;;;;13.25;2.88;;;8.60;99.90;;;;;;5093595;28;20376;-67
2021/10/22 05:30:30;;;;;;;10.23;2.63;;;8.60;99.90;;;;;;5092176;28;20044;-67
2021/10/22 05:32:55;;;;;;;10.45;2.15;;;8.70;99.90;;;;;;5093687;28;20120;-68
2021/10/22 05:35:21;;;;;;;10.60;1.80;;;8.70;99.90;;;;;;5093696;28;20050;-67
2021/10/22 05:37:46;;;;;;;9.45;1.90;;;8.70;99.90;;;;;;5093500;28;20119;-72
2021/10/22 05:40:12;;;;;;;9.65;1.83;;;8.70;99.90;;;;;;5092969;28;20484;-72
2021/10/22 05:42:37;;;;;;;19.67;2.47;;;8.80;99.90;;;;;;5092726;28;20399;-72
2021/10/22 05:45:05;;;;;;;5.05;1.48;;;8.90;99.90;;;;;;5093329;28;20032;-72
2021/10/22 05:47:31;;;;;;;9.38;1.70;;;8.80;99.90;;;;;;5093356;28;20040;-73
2021/10/22 05:49:56;;;;;;;12.80;2.28;;;8.80;99.90;;;;;;5093525;28;20047;-73
2021/10/22 05:52:22;;;;;;;10.05;2.13;;;8.80;99.90;;;;;;5093815;28;20384;-72
2021/10/22 05:54:48;;;;;;;12.07;2.10;;;8.70;99.90;;;;;;5092091;28;20047;-72
2021/10/22 05:57:13;;;;;;;6.47;1.98;;;8.80;99.90;;;;;;5093695;28;20040;-72
2021/10/22 05:59:39;;;;;;;15.93;2.97;;;8.80;99.90;;;;;;5092911;28;20040;-72
2021/10/22 06:02:05;;;;;;;9.60;2.13;;;8.90;99.90;;;;;;5093133;28;20094;-73
2021/10/22 06:04:31;;;;;;;11.55;2.40;;;8.90;99.90;;;;;;5091869;28;20036;-72
2021/10/22 06:06:57;;;;;;;10.63;2.90;;;8.80;99.90;;;;;;5092296;28;20090;-72
2021/10/22 06:09:22;;;;;;;15.43;2.70;;;8.80;99.90;;;;;;5092795;28;20119;-72
2021/10/22 06:11:49;;;;;;;13.27;3.17;;;8.70;99.90;;;;;;5093057;28;20433;-72
2021/10/22 06:14:15;;;;;;;9.27;2.60;;;8.70;99.90;;;;;;5093339;28;20470;-73
2021/10/22 06:16:41;;;;;;;11.80;2.88;;;8.70;99.90;;;;;;5092975;28;20124;-72
2021/10/22 06:19:11;;;;;;;10.13;3.15;;;8.70;99.90;;;;;;5092754;28;20115;-73
2021/10/22 06:21:52;;;;;;;8.18;2.15;;;8.70;99.90;;;;;;5092960;28;20040;-72
2021/10/22 06:24:18;;;;;;;13.50;2.75;;;8.70;99.90;;;;;;5093200;28;20089;-70
2021/10/22 06:26:44;;;;;;;13.35;2.97;;;8.70;99.90;;;;;;5093157;28;20032;-72
2021/10/22 06:29:12;;;;;;;17.20;2.85;;;8.80;99.90;;;;;;5091359;28;20123;-72
2021/10/22 06:31:38;;;;;;;10.43;2.85;;;8.80;99.90;;;;;;5092958;28;20035;-72
2021/10/22 06:34:05;;;;;;;15.18;2.65;;;8.80;99.90;;;;;;5093310;28;20086;-70
2021/10/22 06:36:31;;;;;;;11.77;2.80;;;8.80;99.90;;;;;;5092881;28;20089;-72
2021/10/22 06:38:57;;;;;;;12.05;2.92;;;8.80;99.90;;;;;;5092809;28;20097;-72
2021/10/22 06:41:23;;;;;;;9.90;2.28;;;8.90;99.90;;;;;;5092943;28;20040;-72
2021/10/22 06:43:49;;;;;;;12.38;2.63;;;8.90;99.90;;;;;;5092984;28;20032;-71
2021/10/22 06:46:19;;;;;;;11.30;2.40;;;8.90;99.90;;;;;;5092913;28;20042;-71
2021/10/22 06:48:45;;;;;;;16.00;2.78;;;8.90;99.90;;;;;;5092659;28;20047;-71
2021/10/22 06:51:12;;;;;;;11.10;2.50;;;9.00;99.90;;;;;;5092878;28;20158;-70
2021/10/22 06:53:38;;;;;;;13.05;2.15;;;8.90;99.90;;;;;;5092810;28;20055;-71
2021/10/22 06:56:05;;;;;;;14.80;2.90;;;8.90;99.90;;;;;;5095580;28;20036;-71
2021/10/22 06:58:31;;;;;;;10.43;2.50;;;8.90;99.90;;;;;;5096006;28;20051;-71
2021/10/22 07:00:59;;;;;;;12.98;2.80;;;8.90;99.90;;;;;;5094905;28;20123;-71
2021/10/22 07:03:26;;;;;;;9.73;2.50;;;9.00;99.90;;;;;;5094909;28;20044;-71
2021/10/22 07:08:22;;;;;;;9.68;2.25;;;9.00;99.90;;;;;;5096274;28;20042;-70
2021/10/22 07:10:48;;;;;;;8.02;2.55;;;9.20;99.90;;;;;;5094697;28;20123;-70
2021/10/22 07:13:13;;;;;;;17.13;3.55;;;9.30;99.90;;;;;;5095140;28;20119;-70
2021/10/22 07:15:39;;;;;;;11.30;2.22;;;9.40;99.90;;;;;;5094834;28;20048;-71
2021/10/22 07:18:05;;;;;;;13.30;3.50;;;9.50;99.90;;;;;;5095859;28;20046;-70
2021/10/22 07:20:32;;;;;;;16.00;3.47;;;9.60;99.90;;;;;;5094286;28;20054;-70
2021/10/22 07:23:05;;;;;;;12.55;2.95;;;9.60;99.90;;;;;;5095923;28;20376;-70
2021/10/22 07:25:32;;;;;;;10.02;2.45;;;9.70;99.90;;;;;;5095914;28;20388;-70
2021/10/22 07:27:59;;;;;;;10.60;2.20;;;9.80;99.90;;;;;;5095921;28;20036;-70
2021/10/22 07:30:25;;;;;;;11.90;3.13;;;9.90;99.90;;;;;;5095412;28;20480;-70
2021/10/22 07:32:50;;;;;;;9.50;2.50;;;10.00;99.90;;;;;;5094413;28;20070;-71
2021/10/22 07:35:17;;;;;;;7.65;2.28;;;10.10;99.90;;;;;;5094593;28;20040;-71
2021/10/22 07:37:43;;;;;;;12.65;2.60;;;10.30;99.90;;;;;;5095821;28;20372;-71
2021/10/22 07:40:09;;;;;;;9.90;2.70;;;10.30;99.90;;;;;;5095322;28;20598;-70
2021/10/22 07:42:38;;;;;;;11.93;2.47;;;10.30;99.90;;;;;;5094150;28;20050;-71
2021/10/22 07:45:06;;;;;;;6.93;2.05;;;10.20;99.90;;;;;;5095373;28;20044;-70
2021/10/22 07:47:35;;;;;;;10.13;2.65;;;10.10;99.90;;;;;;5095467;28;20055;-71
2021/10/22 07:50:07;;;;;;;10.50;2.10;;;10.10;99.90;;;;;;5094921;28;20082;-71
2021/10/22 07:52:33;;;;;;;8.88;1.67;;;10.10;99.90;;;;;;5095387;28;20044;-70
2021/10/22 07:54:59;;;;;;;6.65;1.48;;;10.20;99.90;;;;;;5093972;28;20115;-70
2021/10/22 07:57:34;;;;;;;7.57;1.63;;;10.10;99.90;;;;;;5094482;28;20047;-70
2021/10/22 08:00:00;;;;;;;10.98;1.80;;;10.10;99.90;;;;;;5094766;28;20040;-71
2021/10/22 08:02:26;;;;;;;8.00;1.50;;;10.00;99.90;;;;;;5093740;28;20054;-71
2021/10/22 08:04:52;;;;;;;10.05;1.92;;;9.90;99.90;;;;;;5095008;28;20366;-70
2021/10/22 08:07:21;;;;;;;6.13;1.85;;;9.80;99.90;;;;;;5094849;28;20036;-71
2021/10/22 08:09:48;;;;;;;7.70;1.70;;;9.80;99.90;;;;;;5094636;28;20051;-71
2021/10/22 08:12:16;;;;;;;10.18;1.73;;;9.70;99.90;;;;;;5094652;28;20484;-70
2021/10/22 08:14:43;;;;;;;7.90;1.77;;;9.70;99.90;;;;;;5095695;28;20097;-70
2021/10/22 08:17:09;;;;;;;9.98;1.55;;;9.70;99.90;;;;;;5095037;28;20043;-70
2021/10/22 08:19:36;;;;;;;6.45;1.67;;;9.70;99.90;;;;;;5093298;28;20158;-71
2021/10/22 08:25:10;;;;;;;10.48;1.45;;;9.70;99.90;;;;;;5071244;28;20048;-72
2021/10/22 08:27:38;;;;;;;7.80;1.70;;;9.80;99.90;;;;;;5093456;28;20545;-72
2021/10/22 08:30:08;;;;;;;9.02;2.22;;;9.90;99.90;;;;;;5094191;28;20061;-72
2021/10/22 08:32:34;;;;;;;11.45;1.90;;;9.90;99.90;;;;;;5094665;28;20133;-72
2021/10/22 08:35:02;;;;;;;7.60;1.80;;;9.80;99.90;;;;;;5094483;28;20064;-72
2021/10/22 08:37:28;;;;;;;13.90;2.60;;;9.80;99.90;;;;;;5094394;28;20119;-72
2021/10/22 08:39:55;;;;;;;12.05;3.47;;;9.80;99.90;;;;;;5094236;28;20128;-72
2021/10/22 08:42:22;;;;;;;10.38;2.20;;;9.80;99.90;;;;;;5094542;28;20032;-72
2021/10/22 08:44:53;;;;;;;11.43;2.60;;;9.90;99.90;;;;;;5094391;28;20050;-72
2021/10/22 08:47:24;;;;;;;7.55;2.20;;;10.00;99.90;;;;;;5093040;28;20044;-72
2021/10/22 08:49:50;;;;;;;12.45;2.28;;;10.10;99.90;;;;;;5092689;28;20046;-72
2021/10/22 08:52:16;;;;;;;10.48;2.63;;;10.20;99.90;;;;;;5092941;28;20048;-72
2021/10/22 08:54:42;;;;;;;9.00;2.58;;;10.20;99.90;;;;;;5093978;28;20145;-72
2021/10/22 08:57:08;;;;;;;8.35;1.60;;;10.20;99.90;;;;;;5093856;28;20033;-72
2021/10/22 08:59:34;;;;;;;13.00;2.13;;;10.20;99.90;;;;;;5093728;28;20043;-72
2021/10/22 09:02:12;;;;;;;8.65;2.65;;;10.10;99.90;;;;;;5093962;28;20521;-72
2021/10/22 09:04:38;;;;;;;8.07;1.75;;;10.20;99.90;;;;;;5092655;28;20513;-73
2021/10/22 09:07:04;;;;;;;8.75;1.98;;;10.30;99.90;;;;;;5093840;28;20082;-72
2021/10/22 09:09:29;;;;;;;10.07;2.13;;;10.30;99.90;;;;;;5093590;28;20137;-72
2021/10/22 09:11:55;;;;;;;10.07;2.35;;;10.40;99.90;;;;;;5092991;28;20127;-72
2021/10/22 09:14:21;;;;;;;7.47;1.90;;;10.40;99.90;;;;;;5093904;28;20028;-72
2021/10/22 09:16:50;;;;;;;10.68;2.05;;;10.50;99.90;;;;;;5091888;28;20040;-71
2021/10/22 09:19:41;;;;;;;13.15;2.78;;;10.60;99.90;;;;;;5091814;28;20048;-70
2021/10/22 09:22:30;;;;;;;10.38;1.88;;;10.50;99.90;;;;;;5093691;28;20041;-72
2021/10/22 09:25:00;;;;;;;9.98;1.63;;;10.60;99.90;;;;;;5094082;28;20071;-72
2021/10/22 09:27:34;;;;;;;8.60;2.47;;;10.80;99.90;;;;;;5091726;28;20047;-72
2021/10/22 09:30:00;;;;;;;11.15;2.20;;;11.00;99.90;;;;;;5091983;28;20043;-72
2021/10/22 09:32:26;;;;;;;9.60;2.40;;;11.00;99.90;;;;;;5093651;28;20047;-71
2021/10/22 09:34:52;;;;;;;17.85;3.22;;;11.00;99.90;;;;;;5092270;28;20092;-72
2021/10/22 09:37:18;;;;;;;9.52;2.30;;;10.90;99.90;;;;;;5093404;28;20097;-71
2021/10/22 09:39:44;;;;;;;11.32;2.60;;;10.80;99.90;;;;;;5093181;28;20079;-74
2021/10/22 09:42:15;;;;;;;7.78;2.17;;;10.50;99.90;;;;;;5092179;28;20460;-72
2021/10/22 09:44:43;;;;;;;7.97;1.30;;;10.40;99.90;;;;;;5093569;28;20486;-71
2021/10/22 09:47:09;;;;;;;9.15;1.98;;;10.20;99.90;;;;;;5092660;28;20491;-72
2021/10/22 09:49:37;;;;;;;11.48;1.63;;;10.20;99.90;;;;;;5091933;28;20086;-72
2021/10/22 09:52:20;;;;;;;13.82;2.10;;;10.10;99.90;;;;;;5093258;28;20459;-71
2021/10/22 09:54:47;;;;;;;17.63;2.45;;;10.00;99.90;;;;;;5092007;28;20039;-71
2021/10/22 09:57:15;;;;;;;13.30;2.55;;;9.90;99.90;;;;;;5093381;28;20036;-71
2021/10/22 09:59:42;;;;;;;11.35;2.30;;;9.80;99.90;;;;;;5093280;28;20127;-72
2021/10/22 10:02:09;;;;;;;14.52;3.20;;;9.80;99.90;;;;;;5093503;28;20044;-72
2021/10/22 10:04:38;;;;;;;10.38;1.90;;;9.80;99.90;;;;;;5089831;28;20043;-71
2021/10/22 10:07:06;;;;;;;17.65;2.67;;;9.70;99.90;;;;;;5113994;28;20119;-72
2021/10/22 10:09:32;;;;;;;14.90;1.80;;;9.70;99.90;;;;;;5113271;28;20047;-72
2021/10/22 10:12:01;;;;;;;10.32;1.77;;;9.70;99.90;;;;;;5113466;28;20035;-72
2021/10/22 10:14:27;;;;;;;11.77;2.38;;;9.70;99.90;;;;;;5113597;28;20150;-72
2021/10/22 10:16:54;;;;;;;12.23;2.03;;;9.70;99.90;;;;;;5095288;28;20036;-70
2021/10/22 10:19:26;;;;;;;12.38;1.80;;;9.80;99.90;;;;;;5111142;28;20090;-68
2021/10/22 10:22:04;;;;;;;8.63;2.20;;;9.70;99.90;;;;;;5113315;28;20035;-69
2021/10/22 10:24:39;;;;;;;12.23;1.92;;;9.70;99.90;;;;;;5110939;28;20040;-69
2021/10/22 10:27:10;;;;;;;7.88;2.00;;;9.80;99.90;;;;;;5111023;28;20565;-69
2021/10/22 10:29:42;;;;;;;6.07;1.85;;;9.80;99.90;;;;;;5114622;28;20048;-69
2021/10/22 10:32:23;;;;;;;9.13;1.77;;;9.80;99.90;;;;;;5116167;27;20039;-69
2021/10/22 10:34:49;;;;;;;13.40;1.85;;;9.80;99.90;;;;;;5114164;28;20052;-69
2021/10/22 10:37:21;;;;;;;9.63;1.50;;;9.90;99.90;;;;;;5114456;28;20083;-68
2021/10/22 10:39:53;;;;;;;4.75;1.40;;;9.80;99.90;;;;;;5116655;28;20089;-69
2021/10/22 10:42:19;;;;;;;11.38;1.77;;;9.80;99.90;;;;;;5115743;28;20036;-69
2021/10/22 10:44:46;;;;;;;13.07;2.20;;;9.80;99.90;;;;;;5115855;27;20118;-69
2021/10/22 10:47:30;;;;;;;11.95;2.15;;;9.80;99.90;;;;;;5115816;28;20372;-69
2021/10/22 10:49:57;;;;;;;6.20;1.55;;;9.90;99.90;;;;;;5114034;28;20488;-69
2021/10/22 10:52:38;;;;;;;10.15;2.03;;;9.90;99.90;;;;;;5115353;28;20563;-69
2021/10/22 10:55:40;;;;;;;10.63;1.98;;;10.00;99.90;;;;;;5114660;28;20055;-69
2021/10/22 10:58:08;;;;;;;12.00;1.95;;;10.00;99.90;;;;;;5114936;28;20043;-69
2021/10/22 11:00:38;;;;;;;10.45;2.15;;;10.10;99.90;;;;;;5115020;28;20044;-70
2021/10/22 11:03:04;;;;;;;12.73;2.28;;;10.10;99.90;;;;;;5116490;28;20484;-69
2021/10/22 11:05:46;;;;;;;15.70;2.10;;;10.10;99.90;;;;;;5115011;28;20039;-69
2021/10/22 11:08:25;;;;;;;10.18;2.70;;;10.20;99.90;;;;;;5113349;28;20044;-69
2021/10/22 11:11:05;;;;;;;12.55;2.05;;;10.20;99.90;;;;;;5114033;28;20063;-69
2021/10/22 11:13:50;;;;;;;7.63;1.80;;;10.10;99.90;;;;;;5114061;28;20048;-69
2021/10/22 11:16:22;;;;;;;10.38;1.98;;;10.00;99.90;;;;;;5114117;28;20046;-68
2021/10/22 11:19:05;;;;;;;9.43;1.67;;;9.90;99.90;;;;;;5114041;28;20043;-68
2021/10/22 11:21:33;;;;;;;12.18;1.95;;;9.70;99.90;;;;;;5116213;28;20155;-70
2021/10/22 11:24:01;;;;;;;19.55;2.75;;;9.70;99.90;;;;;;5115729;28;20407;-72
2021/10/22 11:26:28;;;;;;;11.30;2.92;;;9.70;99.90;;;;;;5112880;28;20056;-72
2021/10/22 11:28:57;;;;;;;9.65;1.90;;;9.60;99.90;;;;;;5113566;28;20076;-71
2021/10/22 11:31:41;;;;;;;7.72;1.50;;;9.50;99.90;;;;;;5115345;27;20042;-72
2021/10/22 11:34:11;;;;;;;9.00;2.47;;;9.50;99.90;;;;;;5115194;28;20048;-72
2021/10/22 11:36:38;;;;;;;10.77;2.40;;;9.60;99.90;;;;;;5115016;28;20058;-72
2021/10/22 11:39:21;;;;;;;12.18;2.53;;;9.60;99.90;;;;;;5096623;28;20040;-72
2021/10/22 11:42:09;;;;;;;10.52;2.40;;;9.70;99.90;;;;;;5115049;28;20054;-71
2021/10/22 11:44:36;;;;;;;8.98;1.90;;;9.80;99.90;;;;;;5114754;28;20042;-72
2021/10/22 11:47:02;;;;;;;11.02;2.80;;;9.70;99.90;;;;;;5115723;28;20628;-72
2021/10/22 11:49:38;;;;;;;15.00;2.13;;;9.80;99.90;;;;;;5114204;28;20058;-72
2021/10/22 11:52:07;;;;;;;11.77;2.00;;;9.90;99.90;;;;;;5115702;28;20035;-72
2021/10/22 11:54:41;;;;;;;12.50;2.15;;;9.90;99.90;;;;;;5115688;27;20039;-71
2021/10/22 11:57:34;;;;;;;10.10;2.10;;;10.00;99.90;;;;;;5114298;28;20483;-71
2021/10/22 12:00:00;;;;;;;12.20;1.85;;;10.00;99.90;;;;;;5112274;28;20051;-72
2021/10/22 12:02:32;;;;;;;10.02;2.10;;;10.00;99.90;;;;;;5114105;28;20419;-72
2021/10/22 12:05:00;;;;;;;15.30;2.83;;;10.00;99.90;;;;;;5097785;28;20039;-72
2021/10/22 12:07:34;;;;;;;14.43;2.22;;;10.20;99.90;;;;;;5114247;28;20182;-72
2021/10/22 12:10:03;;;;;;;14.93;2.70;;;10.20;99.90;;;;;;5113686;28;20043;-73
2021/10/22 12:12:38;;;;;;;11.60;2.22;;;10.10;99.90;;;;;;5115577;28;20044;-72
2021/10/22 12:15:06;;;;;;;12.23;1.90;;;10.10;99.90;;;;;;5115574;28;20035;-71
2021/10/22 12:17:32;;;;;;;11.25;2.00;;;10.10;99.90;;;;;;5115043;28;20047;-72
2021/10/22 12:20:04;;;;;;;7.03;1.63;;;10.00;99.90;;;;;;5114629;28;20040;-72
2021/10/22 12:22:48;;;;;;;10.30;2.25;;;10.00;99.90;;;;;;5115291;28;20036;-72
2021/10/22 12:25:19;;;;;;;13.77;2.47;;;10.00;99.90;;;;;;5114551;27;20052;-72
2021/10/22 12:27:49;;;;;;;17.00;2.45;;;10.00;99.90;;;;;;5114928;28;20071;-72
2021/10/22 12:30:17;;;;;;;17.00;4.20;;;10.10;99.90;;;;;;5114605;28;20047;-72
2021/10/22 12:32:56;;;;;;;9.52;1.67;;;10.10;99.90;;;;;;5114811;28;20044;-72
2021/10/22 12:35:39;;;;;;;14.05;1.85;;;10.20;99.90;;;;;;5113652;28;20552;-72
2021/10/22 12:38:19;;;;;;;11.15;1.80;;;10.30;99.90;;;;;;5114616;27;20562;-73
2021/10/22 12:40:57;;;;;;;15.45;2.10;;;10.30;99.90;;;;;;5114460;28;20480;-72
2021/10/22 12:43:29;;;;;;;9.05;1.65;;;10.30;99.90;;;;;;5114415;28;20112;-73
2021/10/22 12:46:03;;;;;;;5.85;1.65;;;10.40;99.90;;;;;;5114786;28;20031;-72
2021/10/22 12:48:34;;;;;;;10.35;1.83;;;10.40;99.90;;;;;;5112924;28;20381;-73
2021/10/22 12:51:11;;;;;;;15.63;2.63;;;10.50;99.90;;;;;;5113206;28;20491;-72
2021/10/22 12:53:41;;;;;;;14.35;2.53;;;10.40;99.90;;;;;;5113184;28;20056;-71
2021/10/22 12:56:26;;;;;;;13.90;1.75;;;10.30;99.90;;;;;;5115011;28;20464;-72
2021/10/22 12:58:58;;;;;;;12.63;3.17;;;10.30;99.90;;;;;;5114289;28;20089;-73
2021/10/22 13:01:36;;;;;;;10.43;3.53;;;10.30;99.90;;;;;;5114137;28;20511;-72